sensor_id;sensor_type;location;lat;lon;timestamp;P1;durP1;ratioP1;P2;durP2;ratioP2
64842;SDS011;51310;52.198;5.422;2023-07-13T00:01:47;7.28;;;1.70;;
64842;SDS011;51310;52.198;5.422;2023-07-13T00:04:18;6.00;;;1.90;;
64842;SDS011;51310;52.198;5.422;2023-07-13T00:06:48;12.95;;;2.30;;
64842;SDS011;51310;52.198;5.422;2023-07-13T00:09:15;8.40;;;2.05;;
64842;SDS011;51310;52.198;5.422;2023-07-13T00:11:44;13.55;;;2.50;;
64842;SDS011;51310;52.198;5.422;2023-07-13T00:14:14;14.35;;;2.92;;
64842;SDS011;51310;52.198;5.422;2023-07-13T00:16:40;15.05;;;2.97;;
64842;SDS011;51310;52.198;5.422;2023-07-13T00:19:08;14.45;;;2.67;;
64842;SDS011;51310;52.198;5.422;2023-07-13T00:21:37;13.40;;;2.10;;
64842;SDS011;51310;52.198;5.422;2023-07-13T00:24:06;10.93;;;2.47;;
64842;SDS011;51310;52.198;5.422;2023-07-13T00:26:40;13.05;;;3.22;;
64842;SDS011;51310;52.198;5.422;2023-07-13T00:29:11;18.38;;;2.97;;
64842;SDS011;51310;52.198;5.422;2023-07-13T00:31:37;13.43;;;2.67;;
64842;SDS011;51310;52.198;5.422;2023-07-13T00:34:04;11.27;;;2.30;;
64842;SDS011;51310;52.198;5.422;2023-07-13T00:36:30;8.40;;;2.08;;
64842;SDS011;51310;52.198;5.422;2023-07-13T00:38:56;13.95;;;2.10;;
64842;SDS011;51310;52.198;5.422;2023-07-13T00:41:22;11.45;;;2.95;;
64842;SDS011;51310;52.198;5.422;2023-07-13T00:43:48;14.43;;;2.30;;
64842;SDS011;51310;52.198;5.422;2023-07-13T00:46:19;11.88;;;2.33;;
64842;SDS011;51310;52.198;5.422;2023-07-13T00:48:56;8.20;;;2.60;;
64842;SDS011;51310;52.198;5.422;2023-07-13T00:51:34;8.88;;;2.00;;
64842;SDS011;51310;52.198;5.422;2023-07-13T00:54:14;8.90;;;2.05;;
64842;SDS011;51310;52.198;5.422;2023-07-13T00:56:55;8.25;;;3.05;;
64842;SDS011;51310;52.198;5.422;2023-07-13T00:59:27;12.30;;;2.00;;
64842;SDS011;51310;52.198;5.422;2023-07-13T01:01:53;8.48;;;1.85;;
64842;SDS011;51310;52.198;5.422;2023-07-13T01:04:20;8.48;;;1.92;;
64842;SDS011;51310;52.198;5.422;2023-07-13T01:06:49;6.72;;;1.90;;
64842;SDS011;51310;52.198;5.422;2023-07-13T01:09:16;10.40;;;2.28;;
64842;SDS011;51310;52.198;5.422;2023-07-13T01:11:43;9.35;;;1.85;;
64842;SDS011;51310;52.198;5.422;2023-07-13T01:14:10;5.50;;;1.38;;
64842;SDS011;51310;52.198;5.422;2023-07-13T01:16:37;8.20;;;2.78;;
64842;SDS011;51310;52.198;5.422;2023-07-13T01:19:32;15.48;;;2.53;;
64842;SDS011;51310;52.198;5.422;2023-07-13T01:22:13;5.43;;;1.90;;
64842;SDS011;51310;52.198;5.422;2023-07-13T01:24:44;6.28;;;1.77;;
64842;SDS011;51310;52.198;5.422;2023-07-13T01:27:14;7.28;;;2.65;;
64842;SDS011;51310;52.198;5.422;2023-07-13T01:29:46;5.55;;;1.83;;
64842;SDS011;51310;52.198;5.422;2023-07-13T01:32:15;8.32;;;1.98;;
64842;SDS011;51310;52.198;5.422;2023-07-13T01:34:49;15.35;;;2.72;;
64842;SDS011;51310;52.198;5.422;2023-07-13T01:37:19;7.72;;;2.00;;
64842;SDS011;51310;52.198;5.422;2023-07-13T01:39:46;8.82;;;2.30;;
64842;SDS011;51310;52.198;5.422;2023-07-13T01:42:13;10.05;;;2.88;;
64842;SDS011;51310;52.198;5.422;2023-07-13T01:44:39;8.68;;;2.08;;
64842;SDS011;51310;52.198;5.422;2023-07-13T01:47:05;9.15;;;2.40;;
64842;SDS011;51310;52.198;5.422;2023-07-13T01:49:31;12.15;;;1.95;;
64842;SDS011;51310;52.198;5.422;2023-07-13T01:51:57;5.70;;;2.67;;
64842;SDS011;51310;52.198;5.422;2023-07-13T01:54:23;7.70;;;2.42;;
64842;SDS011;51310;52.198;5.422;2023-07-13T01:56:49;12.52;;;3.28;;
64842;SDS011;51310;52.198;5.422;2023-07-13T01:59:15;4.30;;;1.50;;
64842;SDS011;51310;52.198;5.422;2023-07-13T02:01:41;11.20;;;2.10;;
64842;SDS011;51310;52.198;5.422;2023-07-13T02:04:07;7.88;;;1.92;;
64842;SDS011;51310;52.198;5.422;2023-07-13T02:06:33;10.13;;;2.55;;
64842;SDS011;51310;52.198;5.422;2023-07-13T02:08:59;5.38;;;1.90;;
64842;SDS011;51310;52.198;5.422;2023-07-13T02:11:25;12.93;;;2.92;;
64842;SDS011;51310;52.198;5.422;2023-07-13T02:13:57;4.80;;;1.90;;
64842;SDS011;51310;52.198;5.422;2023-07-13T02:16:28;12.38;;;3.15;;
64842;SDS011;51310;52.198;5.422;2023-07-13T02:18:55;8.88;;;2.55;;
64842;SDS011;51310;52.198;5.422;2023-07-13T02:21:22;14.45;;;2.45;;
64842;SDS011;51310;52.198;5.422;2023-07-13T02:23:49;14.20;;;2.83;;
64842;SDS011;51310;52.198;5.422;2023-07-13T02:26:15;5.80;;;3.10;;
64842;SDS011;51310;52.198;5.422;2023-07-13T02:28:41;9.48;;;2.22;;
64842;SDS011;51310;52.198;5.422;2023-07-13T02:31:08;7.97;;;2.17;;
64842;SDS011;51310;52.198;5.422;2023-07-13T02:33:39;14.65;;;3.15;;
64842;SDS011;51310;52.198;5.422;2023-07-13T02:36:05;5.65;;;1.95;;
64842;SDS011;51310;52.198;5.422;2023-07-13T02:38:32;11.27;;;2.70;;
64842;SDS011;51310;52.198;5.422;2023-07-13T02:41:00;12.65;;;3.25;;
64842;SDS011;51310;52.198;5.422;2023-07-13T02:43:29;10.40;;;2.65;;
64842;SDS011;51310;52.198;5.422;2023-07-13T02:45:55;7.57;;;2.55;;
64842;SDS011;51310;52.198;5.422;2023-07-13T02:48:25;8.55;;;2.20;;
64842;SDS011;51310;52.198;5.422;2023-07-13T02:50:51;8.65;;;2.47;;
64842;SDS011;51310;52.198;5.422;2023-07-13T02:53:17;14.85;;;3.05;;
64842;SDS011;51310;52.198;5.422;2023-07-13T02:55:43;8.82;;;2.00;;
64842;SDS011;51310;52.198;5.422;2023-07-13T02:58:12;16.30;;;2.65;;
64842;SDS011;51310;52.198;5.422;2023-07-13T03:00:41;14.13;;;2.85;;
64842;SDS011;51310;52.198;5.422;2023-07-13T03:03:11;4.97;;;2.08;;
64842;SDS011;51310;52.198;5.422;2023-07-13T03:05:40;15.50;;;3.00;;
64842;SDS011;51310;52.198;5.422;2023-07-13T03:08:15;26.42;;;2.95;;
64842;SDS011;51310;52.198;5.422;2023-07-13T03:10:43;18.65;;;2.83;;
64842;SDS011;51310;52.198;5.422;2023-07-13T03:13:09;23.13;;;4.55;;
64842;SDS011;51310;52.198;5.422;2023-07-13T03:15:35;22.38;;;3.45;;
64842;SDS011;51310;52.198;5.422;2023-07-13T03:18:01;13.15;;;2.67;;
64842;SDS011;51310;52.198;5.422;2023-07-13T03:20:27;11.77;;;3.08;;
64842;SDS011;51310;52.198;5.422;2023-07-13T03:22:52;12.05;;;2.45;;
64842;SDS011;51310;52.198;5.422;2023-07-13T03:25:18;12.80;;;3.28;;
64842;SDS011;51310;52.198;5.422;2023-07-13T03:27:44;9.45;;;3.35;;
64842;SDS011;51310;52.198;5.422;2023-07-13T03:30:10;9.77;;;3.35;;
64842;SDS011;51310;52.198;5.422;2023-07-13T03:32:37;15.43;;;3.17;;
64842;SDS011;51310;52.198;5.422;2023-07-13T03:35:03;13.23;;;3.08;;
64842;SDS011;51310;52.198;5.422;2023-07-13T03:37:30;8.13;;;2.70;;
64842;SDS011;51310;52.198;5.422;2023-07-13T03:39:56;10.55;;;3.05;;
64842;SDS011;51310;52.198;5.422;2023-07-13T03:42:22;16.02;;;3.40;;
64842;SDS011;51310;52.198;5.422;2023-07-13T03:44:48;23.10;;;3.88;;
64842;SDS011;51310;52.198;5.422;2023-07-13T03:47:17;11.30;;;3.10;;
64842;SDS011;51310;52.198;5.422;2023-07-13T03:49:44;12.13;;;4.00;;
64842;SDS011;51310;52.198;5.422;2023-07-13T03:52:11;14.18;;;3.30;;
64842;SDS011;51310;52.198;5.422;2023-07-13T03:54:37;8.65;;;2.55;;
64842;SDS011;51310;52.198;5.422;2023-07-13T03:57:03;18.00;;;3.90;;
64842;SDS011;51310;52.198;5.422;2023-07-13T03:59:29;23.52;;;6.10;;
64842;SDS011;51310;52.198;5.422;2023-07-13T04:01:55;49.25;;;9.73;;
64842;SDS011;51310;52.198;5.422;2023-07-13T04:04:21;23.35;;;4.45;;
64842;SDS011;51310;52.198;5.422;2023-07-13T04:06:47;16.70;;;3.40;;
64842;SDS011;51310;52.198;5.422;2023-07-13T04:09:17;8.75;;;2.88;;
64842;SDS011;51310;52.198;5.422;2023-07-13T04:11:43;9.52;;;3.78;;
64842;SDS011;51310;52.198;5.422;2023-07-13T04:14:10;11.77;;;3.33;;
64842;SDS011;51310;52.198;5.422;2023-07-13T04:16:36;11.77;;;2.67;;
64842;SDS011;51310;52.198;5.422;2023-07-13T04:19:02;11.25;;;3.00;;
64842;SDS011;51310;52.198;5.422;2023-07-13T04:21:28;14.05;;;3.30;;
64842;SDS011;51310;52.198;5.422;2023-07-13T04:23:56;10.18;;;3.60;;
64842;SDS011;51310;52.198;5.422;2023-07-13T04:26:23;13.93;;;3.13;;
64842;SDS011;51310;52.198;5.422;2023-07-13T04:28:50;14.93;;;3.22;;
64842;SDS011;51310;52.198;5.422;2023-07-13T04:31:17;10.70;;;3.65;;
64842;SDS011;51310;52.198;5.422;2023-07-13T04:33:43;16.73;;;3.42;;
64842;SDS011;51310;52.198;5.422;2023-07-13T04:36:09;14.57;;;3.88;;
64842;SDS011;51310;52.198;5.422;2023-07-13T04:38:36;9.45;;;3.38;;
64842;SDS011;51310;52.198;5.422;2023-07-13T04:41:03;15.68;;;3.53;;
64842;SDS011;51310;52.198;5.422;2023-07-13T04:43:32;11.10;;;3.85;;
64842;SDS011;51310;52.198;5.422;2023-07-13T04:46:03;19.10;;;4.93;;
64842;SDS011;51310;52.198;5.422;2023-07-13T04:48:33;21.25;;;4.53;;
64842;SDS011;51310;52.198;5.422;2023-07-13T04:51:00;16.55;;;4.63;;
64842;SDS011;51310;52.198;5.422;2023-07-13T04:53:27;17.13;;;4.97;;
64842;SDS011;51310;52.198;5.422;2023-07-13T04:55:55;11.77;;;3.65;;
64842;SDS011;51310;52.198;5.422;2023-07-13T04:58:22;19.98;;;5.28;;
64842;SDS011;51310;52.198;5.422;2023-07-13T05:00:49;15.93;;;4.63;;
64842;SDS011;51310;52.198;5.422;2023-07-13T05:03:15;19.77;;;5.13;;
64842;SDS011;51310;52.198;5.422;2023-07-13T05:05:41;20.48;;;4.68;;
64842;SDS011;51310;52.198;5.422;2023-07-13T05:08:07;21.48;;;5.22;;
64842;SDS011;51310;52.198;5.422;2023-07-13T05:10:34;21.70;;;5.47;;
64842;SDS011;51310;52.198;5.422;2023-07-13T05:13:01;16.75;;;5.68;;
64842;SDS011;51310;52.198;5.422;2023-07-13T05:15:28;19.80;;;5.65;;
64842;SDS011;51310;52.198;5.422;2023-07-13T05:17:54;29.30;;;6.07;;
64842;SDS011;51310;52.198;5.422;2023-07-13T05:20:20;23.60;;;7.15;;
64842;SDS011;51310;52.198;5.422;2023-07-13T05:22:45;25.55;;;7.30;;
64842;SDS011;51310;52.198;5.422;2023-07-13T05:25:12;25.23;;;5.65;;
64842;SDS011;51310;52.198;5.422;2023-07-13T05:27:38;16.63;;;6.25;;
64842;SDS011;51310;52.198;5.422;2023-07-13T05:30:05;15.50;;;6.20;;
64842;SDS011;51310;52.198;5.422;2023-07-13T05:32:35;20.40;;;5.85;;
64842;SDS011;51310;52.198;5.422;2023-07-13T05:35:01;26.40;;;6.38;;
64842;SDS011;51310;52.198;5.422;2023-07-13T05:37:27;17.15;;;6.55;;
64842;SDS011;51310;52.198;5.422;2023-07-13T05:39:53;28.30;;;7.32;;
64842;SDS011;51310;52.198;5.422;2023-07-13T05:42:19;24.92;;;6.07;;
64842;SDS011;51310;52.198;5.422;2023-07-13T05:44:45;25.90;;;6.68;;
64842;SDS011;51310;52.198;5.422;2023-07-13T05:47:11;32.75;;;7.38;;
64842;SDS011;51310;52.198;5.422;2023-07-13T05:49:39;20.35;;;5.95;;
64842;SDS011;51310;52.198;5.422;2023-07-13T05:52:05;24.60;;;6.35;;
64842;SDS011;51310;52.198;5.422;2023-07-13T05:54:32;21.05;;;6.57;;
64842;SDS011;51310;52.198;5.422;2023-07-13T05:56:58;13.40;;;5.18;;
64842;SDS011;51310;52.198;5.422;2023-07-13T05:59:24;16.27;;;5.78;;
64842;SDS011;51310;52.198;5.422;2023-07-13T06:01:50;16.58;;;5.55;;
64842;SDS011;51310;52.198;5.422;2023-07-13T06:04:19;14.57;;;5.78;;
64842;SDS011;51310;52.198;5.422;2023-07-13T06:06:46;19.13;;;6.47;;
64842;SDS011;51310;52.198;5.422;2023-07-13T06:09:12;17.90;;;6.50;;
64842;SDS011;51310;52.198;5.422;2023-07-13T06:11:38;15.55;;;6.40;;
64842;SDS011;51310;52.198;5.422;2023-07-13T06:14:04;17.63;;;6.07;;
64842;SDS011;51310;52.198;5.422;2023-07-13T06:16:30;20.75;;;7.50;;
64842;SDS011;51310;52.198;5.422;2023-07-13T06:18:57;20.85;;;7.20;;
64842;SDS011;51310;52.198;5.422;2023-07-13T06:21:23;16.20;;;6.80;;
64842;SDS011;51310;52.198;5.422;2023-07-13T06:23:49;27.65;;;7.95;;
64842;SDS011;51310;52.198;5.422;2023-07-13T06:26:18;20.77;;;6.45;;
64842;SDS011;51310;52.198;5.422;2023-07-13T06:28:46;20.48;;;6.75;;
64842;SDS011;51310;52.198;5.422;2023-07-13T06:31:12;18.85;;;6.55;;
64842;SDS011;51310;52.198;5.422;2023-07-13T06:33:40;23.63;;;6.72;;
64842;SDS011;51310;52.198;5.422;2023-07-13T06:36:06;14.10;;;6.18;;
64842;SDS011;51310;52.198;5.422;2023-07-13T06:38:34;12.55;;;6.03;;
64842;SDS011;51310;52.198;5.422;2023-07-13T06:41:01;16.90;;;6.00;;
64842;SDS011;51310;52.198;5.422;2023-07-13T06:43:27;28.77;;;6.32;;
64842;SDS011;51310;52.198;5.422;2023-07-13T06:45:55;16.00;;;6.68;;
64842;SDS011;51310;52.198;5.422;2023-07-13T06:48:21;23.77;;;6.75;;
64842;SDS011;51310;52.198;5.422;2023-07-13T06:50:48;13.63;;;5.88;;
64842;SDS011;51310;52.198;5.422;2023-07-13T06:53:17;27.13;;;6.57;;
64842;SDS011;51310;52.198;5.422;2023-07-13T06:55:45;22.42;;;5.95;;
64842;SDS011;51310;52.198;5.422;2023-07-13T06:58:11;11.60;;;4.80;;
64842;SDS011;51310;52.198;5.422;2023-07-13T07:00:38;19.83;;;6.57;;
64842;SDS011;51310;52.198;5.422;2023-07-13T07:03:05;24.92;;;6.35;;
64842;SDS011;51310;52.198;5.422;2023-07-13T07:05:31;15.48;;;6.50;;
64842;SDS011;51310;52.198;5.422;2023-07-13T07:07:58;23.63;;;6.38;;
64842;SDS011;51310;52.198;5.422;2023-07-13T07:10:24;11.57;;;5.90;;
64842;SDS011;51310;52.198;5.422;2023-07-13T07:12:51;18.13;;;5.90;;
64842;SDS011;51310;52.198;5.422;2023-07-13T07:15:18;28.05;;;6.63;;
64842;SDS011;51310;52.198;5.422;2023-07-13T07:17:44;19.25;;;6.80;;
64842;SDS011;51310;52.198;5.422;2023-07-13T07:20:10;20.90;;;6.80;;
64842;SDS011;51310;52.198;5.422;2023-07-13T07:22:37;14.93;;;6.57;;
64842;SDS011;51310;52.198;5.422;2023-07-13T07:25:03;14.68;;;5.53;;
64842;SDS011;51310;52.198;5.422;2023-07-13T07:27:29;18.42;;;7.05;;
64842;SDS011;51310;52.198;5.422;2023-07-13T07:29:55;17.58;;;7.15;;
64842;SDS011;51310;52.198;5.422;2023-07-13T07:32:22;14.20;;;6.05;;
64842;SDS011;51310;52.198;5.422;2023-07-13T07:34:49;20.92;;;6.72;;
64842;SDS011;51310;52.198;5.422;2023-07-13T07:37:15;14.75;;;7.32;;
64842;SDS011;51310;52.198;5.422;2023-07-13T07:39:42;11.60;;;6.38;;
64842;SDS011;51310;52.198;5.422;2023-07-13T07:42:09;17.98;;;6.88;;
64842;SDS011;51310;52.198;5.422;2023-07-13T07:44:37;18.45;;;7.05;;
64842;SDS011;51310;52.198;5.422;2023-07-13T07:47:05;19.08;;;6.07;;
64842;SDS011;51310;52.198;5.422;2023-07-13T07:49:32;23.65;;;5.78;;
64842;SDS011;51310;52.198;5.422;2023-07-13T07:51:59;17.55;;;6.93;;
64842;SDS011;51310;52.198;5.422;2023-07-13T07:54:26;13.07;;;5.93;;
64842;SDS011;51310;52.198;5.422;2023-07-13T07:56:52;13.45;;;5.75;;
64842;SDS011;51310;52.198;5.422;2023-07-13T07:59:18;15.45;;;5.50;;
64842;SDS011;51310;52.198;5.422;2023-07-13T08:01:44;16.83;;;5.55;;
64842;SDS011;51310;52.198;5.422;2023-07-13T08:04:12;13.55;;;6.00;;
64842;SDS011;51310;52.198;5.422;2023-07-13T08:06:39;18.67;;;6.65;;
64842;SDS011;51310;52.198;5.422;2023-07-13T08:09:05;18.30;;;5.95;;
64842;SDS011;51310;52.198;5.422;2023-07-13T08:11:31;18.17;;;7.47;;
64842;SDS011;51310;52.198;5.422;2023-07-13T08:13:57;19.80;;;8.48;;
64842;SDS011;51310;52.198;5.422;2023-07-13T08:16:23;20.92;;;7.82;;
64842;SDS011;51310;52.198;5.422;2023-07-13T08:18:49;25.83;;;7.63;;
64842;SDS011;51310;52.198;5.422;2023-07-13T08:21:15;27.25;;;8.10;;
64842;SDS011;51310;52.198;5.422;2023-07-13T08:23:44;15.88;;;6.25;;
64842;SDS011;51310;52.198;5.422;2023-07-13T08:26:11;17.27;;;7.10;;
64842;SDS011;51310;52.198;5.422;2023-07-13T08:28:37;17.75;;;7.75;;
64842;SDS011;51310;52.198;5.422;2023-07-13T08:31:03;13.80;;;5.32;;
64842;SDS011;51310;52.198;5.422;2023-07-13T08:33:35;13.15;;;4.68;;
64842;SDS011;51310;52.198;5.422;2023-07-13T08:36:02;13.75;;;4.80;;
64842;SDS011;51310;52.198;5.422;2023-07-13T08:38:30;15.05;;;4.60;;
64842;SDS011;51310;52.198;5.422;2023-07-13T08:40:56;13.48;;;4.05;;
64842;SDS011;51310;52.198;5.422;2023-07-13T08:43:28;15.40;;;5.18;;
64842;SDS011;51310;52.198;5.422;2023-07-13T08:48:58;14.85;;;4.05;;
64842;SDS011;51310;52.198;5.422;2023-07-13T08:51:45;12.55;;;4.10;;
64842;SDS011;51310;52.198;5.422;2023-07-13T08:57:14;11.13;;;4.22;;
64842;SDS011;51310;52.198;5.422;2023-07-13T08:59:46;8.57;;;3.40;;
64842;SDS011;51310;52.198;5.422;2023-07-13T09:02:37;5.72;;;2.55;;
64842;SDS011;51310;52.198;5.422;2023-07-13T09:05:31;8.35;;;2.40;;
64842;SDS011;51310;52.198;5.422;2023-07-13T09:11:06;8.15;;;2.55;;
64842;SDS011;51310;52.198;5.422;2023-07-13T09:17:12;6.57;;;2.30;;
64842;SDS011;51310;52.198;5.422;2023-07-13T09:20:14;6.80;;;2.10;;
64842;SDS011;51310;52.198;5.422;2023-07-13T09:22:59;5.90;;;2.40;;
64842;SDS011;51310;52.198;5.422;2023-07-13T09:25:36;4.80;;;2.15;;
64842;SDS011;51310;52.198;5.422;2023-07-13T09:28:11;9.45;;;2.85;;
64842;SDS011;51310;52.198;5.422;2023-07-13T09:33:56;6.15;;;2.60;;
64842;SDS011;51310;52.198;5.422;2023-07-13T09:36:24;9.70;;;2.92;;
64842;SDS011;51310;52.198;5.422;2023-07-13T09:42:14;7.63;;;3.00;;
64842;SDS011;51310;52.198;5.422;2023-07-13T09:44:56;6.93;;;2.97;;
64842;SDS011;51310;52.198;5.422;2023-07-13T09:47:32;9.32;;;3.67;;
64842;SDS011;51310;52.198;5.422;2023-07-13T09:50:15;6.80;;;2.92;;
64842;SDS011;51310;52.198;5.422;2023-07-13T09:52:43;5.68;;;3.88;;
64842;SDS011;51310;52.198;5.422;2023-07-13T09:55:24;10.23;;;3.67;;
64842;SDS011;51310;52.198;5.422;2023-07-13T09:58:14;10.43;;;3.97;;
64842;SDS011;51310;52.198;5.422;2023-07-13T10:00:58;10.20;;;3.00;;
64842;SDS011;51310;52.198;5.422;2023-07-13T10:03:33;5.78;;;2.40;;
64842;SDS011;51310;52.198;5.422;2023-07-13T10:06:19;3.75;;;2.58;;
64842;SDS011;51310;52.198;5.422;2023-07-13T10:08:47;11.50;;;3.10;;
64842;SDS011;51310;52.198;5.422;2023-07-13T10:11:22;5.18;;;2.45;;
64842;SDS011;51310;52.198;5.422;2023-07-13T10:13:55;5.10;;;2.22;;
64842;SDS011;51310;52.198;5.422;2023-07-13T10:16:43;6.90;;;1.98;;
64842;SDS011;51310;52.198;5.422;2023-07-13T10:19:13;4.82;;;2.55;;
64842;SDS011;51310;52.198;5.422;2023-07-13T10:22:00;6.00;;;2.70;;
64842;SDS011;51310;52.198;5.422;2023-07-13T10:24:57;5.80;;;3.58;;
64842;SDS011;51310;52.198;5.422;2023-07-13T10:27:33;10.55;;;2.72;;
64842;SDS011;51310;52.198;5.422;2023-07-13T10:30:06;7.93;;;2.63;;
64842;SDS011;51310;52.198;5.422;2023-07-13T10:32:53;7.07;;;3.03;;
64842;SDS011;51310;52.198;5.422;2023-07-13T10:35:24;9.63;;;2.38;;
64842;SDS011;51310;52.198;5.422;2023-07-13T10:38:05;4.18;;;2.65;;
64842;SDS011;51310;52.198;5.422;2023-07-13T10:43:20;5.05;;;3.10;;
64842;SDS011;51310;52.198;5.422;2023-07-13T10:46:21;6.93;;;3.47;;
64842;SDS011;51310;52.198;5.422;2023-07-13T10:48:56;11.43;;;3.10;;
64842;SDS011;51310;52.198;5.422;2023-07-13T10:51:32;8.88;;;3.70;;
64842;SDS011;51310;52.198;5.422;2023-07-13T10:54:33;9.73;;;3.40;;
64842;SDS011;51310;52.198;5.422;2023-07-13T10:59:49;8.80;;;3.33;;
64842;SDS011;51310;52.198;5.422;2023-07-13T11:02:27;9.40;;;3.30;;
64842;SDS011;51310;52.198;5.422;2023-07-13T11:04:54;15.73;;;3.53;;
64842;SDS011;51310;52.198;5.422;2023-07-13T11:07:23;11.32;;;3.97;;
64842;SDS011;51310;52.198;5.422;2023-07-13T11:10:03;11.50;;;3.70;;
64842;SDS011;51310;52.198;5.422;2023-07-13T11:12:53;7.75;;;3.22;;
64842;SDS011;51310;52.198;5.422;2023-07-13T11:15:42;8.52;;;3.83;;
64842;SDS011;51310;52.198;5.422;2023-07-13T11:18:21;4.00;;;2.00;;
64842;SDS011;51310;52.198;5.422;2023-07-13T11:20:50;4.68;;;2.13;;
64842;SDS011;51310;52.198;5.422;2023-07-13T11:23:17;6.55;;;2.58;;
64842;SDS011;51310;52.198;5.422;2023-07-13T11:25:55;9.48;;;3.33;;
64842;SDS011;51310;52.198;5.422;2023-07-13T11:28:22;5.80;;;2.75;;
64842;SDS011;51310;52.198;5.422;2023-07-13T11:33:24;5.90;;;3.25;;
64842;SDS011;51310;52.198;5.422;2023-07-13T11:36:22;8.48;;;3.58;;
64842;SDS011;51310;52.198;5.422;2023-07-13T11:39:01;11.13;;;4.15;;
64842;SDS011;51310;52.198;5.422;2023-07-13T11:41:59;15.40;;;3.50;;
64842;SDS011;51310;52.198;5.422;2023-07-13T11:47:00;7.82;;;4.28;;
64842;SDS011;51310;52.198;5.422;2023-07-13T11:49:43;8.25;;;3.85;;
64842;SDS011;51310;52.198;5.422;2023-07-13T11:52:15;10.43;;;4.55;;
64842;SDS011;51310;52.198;5.422;2023-07-13T11:54:52;15.57;;;4.55;;
64842;SDS011;51310;52.198;5.422;2023-07-13T11:57:28;13.27;;;3.72;;
64842;SDS011;51310;52.198;5.422;2023-07-13T12:00:01;11.27;;;4.25;;
64842;SDS011;51310;52.198;5.422;2023-07-13T12:02:46;8.93;;;3.58;;
64842;SDS011;51310;52.198;5.422;2023-07-13T12:05:18;9.18;;;3.53;;
64842;SDS011;51310;52.198;5.422;2023-07-13T12:07:46;8.43;;;3.55;;
64842;SDS011;51310;52.198;5.422;2023-07-13T12:12:57;5.40;;;2.92;;
64842;SDS011;51310;52.198;5.422;2023-07-13T12:15:35;11.05;;;2.97;;
64842;SDS011;51310;52.198;5.422;2023-07-13T12:18:13;9.05;;;3.13;;
64842;SDS011;51310;52.198;5.422;2023-07-13T12:20:55;7.80;;;2.45;;
64842;SDS011;51310;52.198;5.422;2023-07-13T12:25:58;10.32;;;2.70;;
64842;SDS011;51310;52.198;5.422;2023-07-13T12:31:25;12.15;;;2.63;;
64842;SDS011;51310;52.198;5.422;2023-07-13T12:33:56;10.68;;;3.05;;
64842;SDS011;51310;52.198;5.422;2023-07-13T12:36:37;6.15;;;2.25;;
64842;SDS011;51310;52.198;5.422;2023-07-13T12:39:17;9.68;;;2.75;;
64842;SDS011;51310;52.198;5.422;2023-07-13T12:42:21;3.17;;;1.85;;
64842;SDS011;51310;52.198;5.422;2023-07-13T12:47:26;5.57;;;2.30;;
64842;SDS011;51310;52.198;5.422;2023-07-13T12:49:55;8.55;;;2.63;;
64842;SDS011;51310;52.198;5.422;2023-07-13T12:52:32;4.65;;;1.65;;
64842;SDS011;51310;52.198;5.422;2023-07-13T12:55:07;8.27;;;2.30;;
64842;SDS011;51310;52.198;5.422;2023-07-13T12:57:50;6.50;;;2.20;;
64842;SDS011;51310;52.198;5.422;2023-07-13T13:00:33;3.97;;;2.75;;
64842;SDS011;51310;52.198;5.422;2023-07-13T13:03:18;9.63;;;2.35;;
64842;SDS011;51310;52.198;5.422;2023-07-13T13:05:48;6.80;;;2.58;;
64842;SDS011;51310;52.198;5.422;2023-07-13T13:08:21;8.00;;;1.85;;
64842;SDS011;51310;52.198;5.422;2023-07-13T13:10:47;10.40;;;2.67;;
64842;SDS011;51310;52.198;5.422;2023-07-13T13:13:13;5.57;;;2.10;;
64842;SDS011;51310;52.198;5.422;2023-07-13T13:15:39;4.07;;;2.50;;
64842;SDS011;51310;52.198;5.422;2023-07-13T13:18:09;3.75;;;2.05;;
64842;SDS011;51310;52.198;5.422;2023-07-13T13:20:49;7.30;;;2.13;;
64842;SDS011;51310;52.198;5.422;2023-07-13T13:23:17;3.30;;;2.20;;
64842;SDS011;51310;52.198;5.422;2023-07-13T13:25:46;4.78;;;2.53;;
64842;SDS011;51310;52.198;5.422;2023-07-13T13:28:16;4.60;;;2.10;;
64842;SDS011;51310;52.198;5.422;2023-07-13T13:30:46;5.25;;;2.38;;
64842;SDS011;51310;52.198;5.422;2023-07-13T13:33:16;6.15;;;2.63;;
64842;SDS011;51310;52.198;5.422;2023-07-13T13:35:46;7.38;;;2.28;;
64842;SDS011;51310;52.198;5.422;2023-07-13T13:38:20;12.73;;;2.85;;
64842;SDS011;51310;52.198;5.422;2023-07-13T13:40:52;8.60;;;2.20;;
64842;SDS011;51310;52.198;5.422;2023-07-13T13:43:23;10.07;;;2.70;;
64842;SDS011;51310;52.198;5.422;2023-07-13T13:45:52;11.88;;;3.92;;
64842;SDS011;51310;52.198;5.422;2023-07-13T13:48:33;5.72;;;2.35;;
64842;SDS011;51310;52.198;5.422;2023-07-13T13:51:06;7.93;;;2.95;;
64842;SDS011;51310;52.198;5.422;2023-07-13T13:53:42;6.10;;;2.38;;
64842;SDS011;51310;52.198;5.422;2023-07-13T13:56:11;6.97;;;2.38;;
64842;SDS011;51310;52.198;5.422;2023-07-13T13:58:38;10.95;;;2.67;;
64842;SDS011;51310;52.198;5.422;2023-07-13T14:01:08;11.10;;;2.55;;
64842;SDS011;51310;52.198;5.422;2023-07-13T14:03:47;5.00;;;2.03;;
64842;SDS011;51310;52.198;5.422;2023-07-13T14:06:22;5.72;;;2.40;;
64842;SDS011;51310;52.198;5.422;2023-07-13T14:08:48;10.05;;;3.03;;
64842;SDS011;51310;52.198;5.422;2023-07-13T14:11:15;6.55;;;2.30;;
64842;SDS011;51310;52.198;5.422;2023-07-13T14:13:47;8.70;;;3.13;;
64842;SDS011;51310;52.198;5.422;2023-07-13T14:16:25;6.80;;;2.30;;
64842;SDS011;51310;52.198;5.422;2023-07-13T14:18:57;7.00;;;2.10;;
64842;SDS011;51310;52.198;5.422;2023-07-13T14:21:25;7.63;;;2.33;;
64842;SDS011;51310;52.198;5.422;2023-07-13T14:23:54;7.18;;;2.22;;
64842;SDS011;51310;52.198;5.422;2023-07-13T14:26:21;10.82;;;2.75;;
64842;SDS011;51310;52.198;5.422;2023-07-13T14:28:56;5.50;;;2.53;;
64842;SDS011;51310;52.198;5.422;2023-07-13T14:31:23;4.50;;;1.75;;
64842;SDS011;51310;52.198;5.422;2023-07-13T14:33:55;7.05;;;2.60;;
64842;SDS011;51310;52.198;5.422;2023-07-13T14:36:33;4.55;;;1.98;;
64842;SDS011;51310;52.198;5.422;2023-07-13T14:39:11;12.80;;;2.40;;
64842;SDS011;51310;52.198;5.422;2023-07-13T14:41:43;12.15;;;2.40;;
64842;SDS011;51310;52.198;5.422;2023-07-13T14:44:13;4.45;;;2.22;;
64842;SDS011;51310;52.198;5.422;2023-07-13T14:49:15;5.50;;;2.83;;
64842;SDS011;51310;52.198;5.422;2023-07-13T14:54:28;6.72;;;2.03;;
64842;SDS011;51310;52.198;5.422;2023-07-13T14:56:54;3.80;;;1.67;;
64842;SDS011;51310;52.198;5.422;2023-07-13T14:59:20;5.13;;;2.25;;
64842;SDS011;51310;52.198;5.422;2023-07-13T15:01:48;6.13;;;1.92;;
64842;SDS011;51310;52.198;5.422;2023-07-13T15:04:15;3.53;;;1.73;;
64842;SDS011;51310;52.198;5.422;2023-07-13T15:06:53;5.03;;;1.88;;
64842;SDS011;51310;52.198;5.422;2023-07-13T15:09:26;7.05;;;3.55;;
64842;SDS011;51310;52.198;5.422;2023-07-13T15:11:56;7.05;;;2.47;;
64842;SDS011;51310;52.198;5.422;2023-07-13T15:14:23;5.32;;;2.42;;
64842;SDS011;51310;52.198;5.422;2023-07-13T15:16:52;9.75;;;2.08;;
64842;SDS011;51310;52.198;5.422;2023-07-13T15:19:21;2.80;;;1.73;;
64842;SDS011;51310;52.198;5.422;2023-07-13T15:21:50;4.93;;;1.65;;
64842;SDS011;51310;52.198;5.422;2023-07-13T15:24:17;6.97;;;2.15;;
64842;SDS011;51310;52.198;5.422;2023-07-13T15:26:43;7.53;;;2.50;;
64842;SDS011;51310;52.198;5.422;2023-07-13T15:29:11;3.92;;;2.05;;
64842;SDS011;51310;52.198;5.422;2023-07-13T15:31:38;4.25;;;1.52;;
64842;SDS011;51310;52.198;5.422;2023-07-13T15:34:09;7.60;;;1.77;;
64842;SDS011;51310;52.198;5.422;2023-07-13T15:36:41;4.47;;;1.85;;
64842;SDS011;51310;52.198;5.422;2023-07-13T15:39:08;8.95;;;2.42;;
64842;SDS011;51310;52.198;5.422;2023-07-13T15:41:42;5.93;;;1.90;;
64842;SDS011;51310;52.198;5.422;2023-07-13T15:44:22;4.32;;;1.77;;
64842;SDS011;51310;52.198;5.422;2023-07-13T15:46:55;10.18;;;2.70;;